OMDB METAR and TAF | Updated Today

OMDB METAR

Dubai International Airport

Observation time: 51 min. ago

OMDB 291900Z 13004KT 100V160 9000 NSC 33/21 Q1006 NOSIG

Need help? Read our tutorial on how to read METARs or read the parsed version below.

Dubai International Airport (OMDB) METAR

  • Weather conditions on Thu, 29 Sep 2022 19:00:00 +0000 (51 min. ago):
  • Present conditions: Dry
  • Clouds: No significant clouds are observed
  • Visibility: 9000 meters
  • Wind: 130 degrees at 4 knots
  • Temperature: 33 celsius
  • Dew point: 21 celsius
  • Pressure: 1006 millibars
  • Remarks: None


Useful to know...

OMDB TAF

Dubai International Airport

TAF OMDB 291700Z 2918/0100 05005KT 8000 NSC BECMG 3002/3004 17010KT BECMG 3008/3010 33012KT BECMG 3016/3018 08005KT
Observation time: 2:51 hr. ago
Need help? Read our tutorial on how to read TAFs or read the parsed version below.

Parsed version of TAF for Dubai International Airport (OMDB)

  • From 29 September at 18:00 UTC, to day 01 of the month at 00:00 UTC
  • Clouds: No significant clouds are observed
  • Visibility: 8000 meters
  • Wind: 50 degrees at 5
  • Expected to arise soon, from 30 September at 02:00 UTC, to day 30 of the month at 04:00 UTC
  • Wind: 170 degrees at 10
  • Expected to arise soon, from 30 September at 08:00 UTC, to day 30 of the month at 10:00 UTC
  • Wind: 330 degrees at 12
  • Expected to arise soon, from 30 September at 16:00 UTC, to day 30 of the month at 18:00 UTC
  • Wind: 80 degrees at 5